Southpoint, Ohio
Current Conditions -  °F | °C
As of 8:03 AM on Friday 28 Nov 2014 (Local Time) from KHTS Reporting Station
Overcast Overcast  
Wind Chill: 28°   Ceiling: 2600
Heat Index: 28°   Visibility: 10mi
Dew Point: 20°   Wind: 3mph
Humidity: 72%   Direction: 300°WNW
Pressure: 30.4"   Gusts: NA
Location:  38.4563°N, 82.5446°W
Report Text: KHTS 281303Z 30003KT 10SM BKN026 OVC036 M02/M07 A3040 RMK AO2 T10221067
Loading
Personal Weather Stations






























Interactive Weather Map New forecast layout! Learn more

10-Day Weather Forecast

Advertisements
Track Severe Weather on mobile